Terminal Aerodrome Forecast
Issued by NWS

Home | Current Version | Previous Version | Text Only | Print | Product List | Glossary On
Versions: 1 2 3 4 5 6 7 8 9 10 11 12 13 14 15 16 17 18 19 20 21 22 23 24 25
131
FTUS43 KABR 131337 AAA
TAFMBG
TAF AMD
KMBG 131337Z 1314/1412 14016KT P6SM -SN OVC027
     FM131800 14020G28KT 6SM -SN OVC015
     FM140000 14019G28KT 1SM -SN OVC007
     FM140900 30011KT P6SM OVC015=

USA.gov is the U.S. government's official web portal to all federal, state and local government web resources and services.